Time;durP1;ratioP1;P1;durP2;ratioP2;P2;SDS_P1;SDS_P2;PMS_P1;PMS_P2;Temp;Humidity;BMP_temperature;BMP_pressure;BME280_temperature;BME280_humidity;BME280_pressure;Samples;Min_cycle;Max_cycle;Signal;HPM_P1;HPM_P2
2022/07/14 00:00:39;;;;;;;8.00;3.95;;;22.30;99.90;;;;;;4899858;29;20127;-94
2022/07/14 00:03:06;;;;;;;7.18;2.95;;;22.30;99.90;;;;;;4882606;29;20036;-92
2022/07/14 00:05:32;;;;;;;12.52;3.15;;;22.30;99.90;;;;;;4898576;29;20040;-93
2022/07/14 00:07:59;;;;;;;10.15;2.80;;;22.20;99.90;;;;;;4883616;29;20605;-92
2022/07/14 00:10:25;;;;;;;8.20;2.40;;;22.10;99.90;;;;;;4898658;29;20084;-92
2022/07/14 00:12:53;;;;;;;10.27;2.60;;;22.10;99.90;;;;;;4882708;29;20567;-93
2022/07/14 00:15:19;;;;;;;6.25;1.98;;;22.10;99.90;;;;;;4898209;29;20532;-92
2022/07/14 00:17:46;;;;;;;12.20;2.38;;;22.10;99.90;;;;;;4882840;29;20040;-92
2022/07/14 00:20:12;;;;;;;9.50;2.17;;;22.00;99.90;;;;;;4898360;29;20028;-93
2022/07/14 00:22:40;;;;;;;7.50;2.22;;;22.00;99.90;;;;;;4882666;29;20064;-92
2022/07/14 00:25:07;;;;;;;7.20;2.22;;;22.00;99.90;;;;;;4898362;29;20047;-91
2022/07/14 00:27:37;;;;;;;8.95;3.03;;;22.00;99.90;;;;;;4882715;29;20537;-94
2022/07/14 00:30:05;;;;;;;13.15;2.80;;;22.00;99.90;;;;;;4898445;29;20048;-91
2022/07/14 00:32:39;;;;;;;12.68;2.78;;;22.00;99.90;;;;;;4883409;29;20035;-94
2022/07/14 00:35:26;;;;;;;8.60;2.40;;;21.90;99.90;;;;;;4891273;29;20051;-95
2022/07/14 00:37:59;;;;;;;6.43;2.15;;;21.80;99.90;;;;;;4922023;29;20040;-93
2022/07/14 00:40:44;;;;;;;10.00;2.47;;;21.80;99.90;;;;;;4929489;29;20036;-94
2022/07/14 00:43:17;;;;;;;7.53;2.28;;;21.70;99.90;;;;;;4902556;29;20036;-94
2022/07/14 00:45:44;;;;;;;9.30;2.17;;;21.70;99.90;;;;;;4919279;29;20059;-94
2022/07/14 00:48:14;;;;;;;7.90;2.60;;;21.70;99.90;;;;;;4918684;29;20048;-93
2022/07/14 00:50:41;;;;;;;8.90;2.53;;;21.60;99.90;;;;;;4918195;29;20032;-92
2022/07/14 00:53:09;;;;;;;6.40;2.30;;;21.50;99.90;;;;;;4902632;29;20032;-93
2022/07/14 00:55:36;;;;;;;14.60;3.08;;;21.40;99.90;;;;;;4917753;29;20417;-93
2022/07/14 00:58:03;;;;;;;11.73;2.70;;;21.30;99.90;;;;;;4917452;29;20091;-93
2022/07/14 01:00:30;;;;;;;8.57;2.40;;;21.30;99.90;;;;;;4918669;29;20032;-94
2022/07/14 01:02:57;;;;;;;6.03;2.50;;;21.20;99.90;;;;;;4918150;29;20036;-92
2022/07/14 01:05:24;;;;;;;11.15;2.92;;;21.20;99.90;;;;;;4918780;29;20032;-94
2022/07/14 01:07:54;;;;;;;7.82;2.33;;;21.20;99.90;;;;;;4921244;29;20032;-94
2022/07/14 01:10:21;;;;;;;8.02;2.28;;;21.10;99.90;;;;;;4917637;29;20028;-92
2022/07/14 01:12:54;;;;;;;11.30;1.90;;;21.10;99.90;;;;;;4902308;29;20035;-93
2022/07/14 01:15:24;;;;;;;7.82;2.13;;;21.00;99.90;;;;;;4902765;29;20036;-92
2022/07/14 01:17:52;;;;;;;6.32;1.80;;;21.00;99.90;;;;;;4901803;29;20040;-94
2022/07/14 01:20:20;;;;;;;9.38;1.83;;;21.00;99.90;;;;;;4902048;29;20033;-93
2022/07/14 01:22:48;;;;;;;8.98;2.10;;;21.00;99.90;;;;;;4918809;29;20039;-93
2022/07/14 01:25:24;;;;;;;6.30;2.42;;;21.10;99.90;;;;;;4907371;29;20039;-93
2022/07/14 01:28:01;;;;;;;5.97;1.90;;;21.10;99.90;;;;;;4923844;29;20034;-94
2022/07/14 01:30:34;;;;;;;8.23;1.80;;;21.00;99.90;;;;;;4909021;29;20028;-94
2022/07/14 01:33:13;;;;;;;5.93;1.98;;;21.00;99.90;;;;;;4925532;29;20043;-93
2022/07/14 01:35:41;;;;;;;11.65;2.42;;;21.00;99.90;;;;;;4918516;29;20076;-92
2022/07/14 01:38:07;;;;;;;7.45;2.00;;;21.00;99.90;;;;;;4902985;29;20127;-93
2022/07/14 01:40:35;;;;;;;6.18;2.92;;;21.00;99.90;;;;;;4918080;29;20074;-94
2022/07/14 01:43:12;;;;;;;8.50;2.53;;;21.00;99.90;;;;;;4917604;29;20020;-92
2022/07/14 01:45:41;;;;;;;8.77;2.15;;;21.00;99.90;;;;;;4917988;29;20032;-93
2022/07/14 01:48:13;;;;;;;10.02;2.05;;;21.00;99.90;;;;;;4917240;29;20043;-94
2022/07/14 01:50:44;;;;;;;7.60;2.30;;;21.00;99.90;;;;;;4917013;29;20047;-94
2022/07/14 01:53:17;;;;;;;11.13;2.30;;;20.90;99.90;;;;;;4901422;29;20032;-94
2022/07/14 01:55:44;;;;;;;6.75;2.38;;;20.90;99.90;;;;;;4917123;29;20040;-93
2022/07/14 01:58:11;;;;;;;9.32;2.15;;;20.80;99.90;;;;;;4901136;29;20052;-92
2022/07/14 02:00:40;;;;;;;6.88;2.30;;;20.70;99.90;;;;;;4918182;29;20070;-94
2022/07/14 02:03:18;;;;;;;7.28;2.33;;;20.70;99.90;;;;;;4918471;29;20529;-94
2022/07/14 02:05:49;;;;;;;9.45;2.50;;;20.60;99.90;;;;;;4917624;29;20036;-93
2022/07/14 02:08:15;;;;;;;6.22;2.42;;;20.60;99.90;;;;;;4918946;29;20025;-92
2022/07/14 02:13:44;;;;;;;6.95;2.03;;;20.50;99.90;;;;;;4918038;29;20106;-94
2022/07/14 02:16:32;;;;;;;7.72;1.92;;;20.40;99.90;;;;;;4918515;29;20048;-95
2022/07/14 02:19:07;;;;;;;6.80;2.30;;;20.40;99.90;;;;;;4928527;29;20059;-93
2022/07/14 02:21:46;;;;;;;9.15;2.20;;;20.30;99.90;;;;;;4926132;29;20078;-93
2022/07/14 02:24:13;;;;;;;5.57;2.13;;;20.40;99.90;;;;;;4917785;29;20410;-92
2022/07/14 02:26:41;;;;;;;8.82;2.47;;;20.30;99.90;;;;;;4918294;29;20035;-92
2022/07/14 02:29:08;;;;;;;4.28;2.15;;;20.30;99.90;;;;;;4919885;29;20123;-94
2022/07/14 02:31:35;;;;;;;8.77;2.13;;;20.30;99.90;;;;;;4920331;29;20029;-93
2022/07/14 02:34:04;;;;;;;10.50;2.83;;;20.30;99.90;;;;;;4905865;29;20036;-92
2022/07/14 02:36:32;;;;;;;9.05;2.47;;;20.30;99.90;;;;;;4922518;29;20036;-93
2022/07/14 02:39:00;;;;;;;6.57;2.22;;;20.30;99.90;;;;;;4905146;29;20064;-94
2022/07/14 02:41:26;;;;;;;5.95;1.80;;;20.20;99.90;;;;;;4920891;29;20028;-92
2022/07/14 02:43:53;;;;;;;12.80;2.65;;;20.20;99.90;;;;;;4920518;29;20028;-93
2022/07/14 02:46:20;;;;;;;6.40;2.15;;;20.20;99.90;;;;;;4921208;29;20059;-93
2022/07/14 02:48:48;;;;;;;7.43;2.78;;;20.30;99.90;;;;;;4920386;29;20042;-94
2022/07/14 02:51:15;;;;;;;4.47;2.00;;;20.30;99.90;;;;;;4919696;29;20028;-93
2022/07/14 02:53:42;;;;;;;6.93;2.38;;;20.30;99.90;;;;;;4919342;29;20549;-93
2022/07/14 02:56:09;;;;;;;6.65;2.45;;;20.40;99.90;;;;;;4888047;29;20542;-93
2022/07/14 02:58:39;;;;;;;6.70;2.40;;;20.50;99.90;;;;;;4904742;29;20100;-93
2022/07/14 03:01:08;;;;;;;6.32;2.20;;;20.60;99.90;;;;;;4904793;29;20124;-93
2022/07/14 03:03:36;;;;;;;8.05;2.70;;;20.70;99.90;;;;;;4921614;29;20024;-92
2022/07/14 03:06:22;;;;;;;14.48;3.42;;;20.80;99.90;;;;;;4903835;29;20056;-93
2022/07/14 03:08:52;;;;;;;7.65;2.42;;;20.80;99.90;;;;;;4904534;29;20032;-92
2022/07/14 03:11:20;;;;;;;10.32;2.78;;;20.80;99.90;;;;;;4904086;29;20040;-93
2022/07/14 03:13:47;;;;;;;8.82;2.70;;;20.90;99.90;;;;;;4919284;29;20213;-92
2022/07/14 03:16:16;;;;;;;6.55;2.58;;;20.90;99.90;;;;;;4904639;29;20565;-94
2022/07/14 03:18:47;;;;;;;7.40;2.25;;;20.90;99.90;;;;;;4908821;29;20024;-94
2022/07/14 03:21:13;;;;;;;7.85;2.80;;;20.90;99.90;;;;;;4909084;29;20047;-93
2022/07/14 03:23:47;;;;;;;11.25;2.65;;;20.80;99.90;;;;;;4919697;29;20129;-93
2022/07/14 03:26:25;;;;;;;8.70;2.50;;;20.80;99.90;;;;;;4909857;29;20398;-95
2022/07/14 03:28:53;;;;;;;10.50;2.70;;;20.70;99.90;;;;;;4909556;29;20028;-93
2022/07/14 03:31:21;;;;;;;6.03;2.67;;;20.70;99.90;;;;;;4910021;29;20020;-93
2022/07/14 03:33:48;;;;;;;6.40;2.90;;;20.70;99.90;;;;;;4910377;29;20044;-94
2022/07/14 03:36:19;;;;;;;7.50;2.45;;;20.70;99.90;;;;;;4895655;29;20043;-92
2022/07/14 03:38:45;;;;;;;9.70;3.28;;;20.80;99.90;;;;;;4909273;29;20435;-93
2022/07/14 03:41:13;;;;;;;9.40;3.13;;;20.80;99.90;;;;;;4912360;29;20028;-93
2022/07/14 03:43:40;;;;;;;9.63;3.30;;;20.70;99.90;;;;;;4927961;29;20494;-94
2022/07/14 03:46:08;;;;;;;9.98;2.70;;;20.80;99.90;;;;;;4909530;29;20031;-93
2022/07/14 03:48:40;;;;;;;11.82;3.00;;;20.80;99.90;;;;;;4906992;29;20515;-93
2022/07/14 03:51:09;;;;;;;13.75;3.00;;;20.80;99.90;;;;;;4905946;29;20401;-94
2022/07/14 03:53:39;;;;;;;8.35;3.10;;;20.90;99.90;;;;;;4904937;29;20051;-92
2022/07/14 03:56:06;;;;;;;7.53;2.63;;;20.90;99.90;;;;;;4906645;29;20131;-93
2022/07/14 03:58:42;;;;;;;5.45;2.38;;;20.90;99.90;;;;;;4907138;29;20058;-93
2022/07/14 04:01:10;;;;;;;5.57;2.10;;;20.90;99.90;;;;;;4922275;29;20036;-92
2022/07/14 04:03:37;;;;;;;7.65;2.45;;;21.00;99.90;;;;;;4922436;29;20024;-92
2022/07/14 04:06:03;;;;;;;8.55;2.53;;;21.00;99.90;;;;;;4920757;29;20029;-92
2022/07/14 04:08:30;;;;;;;8.95;2.50;;;21.10;99.90;;;;;;4920626;29;20035;-93
2022/07/14 04:11:01;;;;;;;10.38;2.30;;;21.10;99.90;;;;;;4905717;29;20393;-93
2022/07/14 04:13:29;;;;;;;5.90;1.95;;;21.20;99.90;;;;;;4904797;29;20485;-93
2022/07/14 04:15:56;;;;;;;7.15;2.30;;;21.30;99.90;;;;;;4921884;29;20047;-93
2022/07/14 04:18:24;;;;;;;8.48;2.38;;;21.40;99.90;;;;;;4920616;29;20028;-95
2022/07/14 04:20:54;;;;;;;6.65;2.65;;;21.50;99.90;;;;;;4905606;29;20100;-92
2022/07/14 04:23:23;;;;;;;7.40;2.40;;;21.70;99.90;;;;;;4906464;29;20028;-94
2022/07/14 04:25:51;;;;;;;12.23;2.30;;;21.70;99.90;;;;;;4908905;29;20050;-92
2022/07/14 04:28:19;;;;;;;8.32;2.80;;;21.80;99.90;;;;;;4923612;29;20042;-93
2022/07/14 04:30:47;;;;;;;8.98;2.50;;;21.70;99.90;;;;;;4908876;29;20059;-92
2022/07/14 04:33:14;;;;;;;6.50;2.83;;;21.80;99.90;;;;;;4924770;29;20131;-92
2022/07/14 04:35:44;;;;;;;8.43;2.72;;;21.70;99.90;;;;;;4909319;29;20047;-93
2022/07/14 04:38:11;;;;;;;5.57;2.40;;;21.80;99.90;;;;;;4923232;29;20029;-93
2022/07/14 04:40:53;;;;;;;5.68;2.30;;;22.00;99.90;;;;;;4925698;29;20514;-92
2022/07/14 04:43:22;;;;;;;13.55;3.30;;;22.40;99.90;;;;;;4924463;29;20462;-93
2022/07/14 04:45:51;;;;;;;5.55;2.60;;;23.60;99.90;;;;;;4895203;29;20025;-93
2022/07/14 04:48:19;;;;;;;9.13;2.35;;;24.90;99.90;;;;;;4902445;29;20033;-94
2022/07/14 04:53:38;;;;;;;6.10;2.22;;;27.40;99.90;;;;;;4920712;29;20032;-92
2022/07/14 04:56:23;;;;;;;11.02;2.58;;;28.20;99.90;;;;;;4936381;29;20047;-93
2022/07/14 04:59:14;;;;;;;6.00;2.25;;;28.70;99.90;;;;;;4962184;23;20053;-92
2022/07/14 05:01:41;;;;;;;12.85;2.42;;;28.30;99.90;;;;;;4936501;28;20039;-94
2022/07/14 05:04:08;;;;;;;9.60;2.80;;;28.40;99.90;;;;;;4947334;28;20504;-93
2022/07/14 05:06:36;;;;;;;9.95;2.40;;;28.70;99.90;;;;;;4946603;29;20027;-94
2022/07/14 05:09:04;;;;;;;8.57;2.55;;;29.50;99.90;;;;;;4928233;29;20078;-93
2022/07/14 05:11:32;;;;;;;8.25;2.22;;;29.70;99.90;;;;;;4946396;29;20469;-94
2022/07/14 05:14:22;;;;;;;7.22;2.17;;;30.00;99.90;;;;;;4945450;29;20031;-94
2022/07/14 05:17:01;;;;;;;11.27;2.70;;;30.40;99.90;;;;;;4899261;29;20040;-94
2022/07/14 05:19:51;;;;;;;6.32;1.95;;;30.90;99.90;;;;;;4885725;29;20124;-94
2022/07/14 05:22:39;;;;;;;9.05;2.20;;;30.70;99.90;;;;;;4883355;29;20037;-94
2022/07/14 05:25:23;;;;;;;13.73;2.10;;;31.20;99.90;;;;;;4884235;29;20037;-94
2022/07/14 05:28:04;;;;;;;6.45;2.17;;;31.20;99.90;;;;;;4884507;29;20105;-95
2022/07/14 05:34:26;;;;;;;;;;;;;;;;;;;;;
2022/07/14 05:37:23;;;;;;;9.73;2.17;;;30.60;99.90;;;;;;5012027;23;20062;-94
2022/07/14 05:39:56;;;;;;;8.40;2.60;;;30.40;99.90;;;;;;4963170;28;20054;-94
2022/07/14 05:42:42;;;;;;;6.57;2.28;;;30.40;99.90;;;;;;4962978;28;20030;-93
2022/07/14 05:52:24;;;;;;;5.72;2.22;;;31.00;99.90;;;;;;5907762;23;21082;-96
2022/07/14 05:55:42;;;;;;;7.55;2.70;;;31.00;99.90;;;;;;4959704;29;20047;-94
2022/07/14 05:58:10;;;;;;;8.20;2.60;;;30.70;99.90;;;;;;4905557;29;20036;-95
2022/07/14 06:00:37;;;;;;;6.72;3.13;;;30.60;99.90;;;;;;4920885;29;20035;-95
2022/07/14 06:03:19;;;;;;;7.25;2.60;;;31.00;99.90;;;;;;4925671;29;20114;-95
2022/07/14 06:05:49;;;;;;;10.40;2.85;;;31.10;99.90;;;;;;4929560;29;20512;-95
2022/07/14 06:08:32;;;;;;;9.73;3.38;;;31.10;99.90;;;;;;4958516;23;20058;-94
2022/07/14 06:11:00;;;;;;;12.30;4.20;;;31.20;99.90;;;;;;4946411;28;20027;-93
2022/07/14 06:13:57;;;;;;;6.22;2.97;;;31.70;99.90;;;;;;4946393;28;20113;-95
2022/07/14 06:16:42;;;;;;;7.00;3.65;;;31.30;99.90;;;;;;4962886;28;20549;-95
2022/07/14 06:19:17;;;;;;;10.77;4.07;;;31.10;99.90;;;;;;4944876;29;20130;-92
2022/07/14 06:22:05;;;;;;;7.53;3.70;;;30.60;99.90;;;;;;4929073;29;20035;-94
2022/07/14 06:24:59;;;;;;;10.43;4.65;;;30.90;99.90;;;;;;4929632;29;20035;-94
2022/07/14 06:28:06;;;;;;;9.95;3.50;;;31.10;99.90;;;;;;4945935;29;20034;-93
2022/07/14 06:31:37;;;;;;;;;;;;;;;;;;;;;
2022/07/14 06:34:14;;;;;;;12.10;3.40;;;31.30;99.90;;;;;;4949918;29;20090;-94
2022/07/14 06:36:53;;;;;;;6.43;3.85;;;30.90;99.90;;;;;;4892476;29;20146;-94
2022/07/14 06:39:22;;;;;;;8.43;3.38;;;31.10;99.90;;;;;;4907649;29;20032;-94
2022/07/14 06:41:53;;;;;;;7.55;4.18;;;30.80;99.90;;;;;;4907837;29;20104;-94
2022/07/14 06:44:27;;;;;;;9.30;4.30;;;31.00;99.90;;;;;;4911392;29;20028;-94
2022/07/14 06:47:01;;;;;;;7.20;3.45;;;31.10;99.90;;;;;;4912767;29;20028;-93
2022/07/14 06:49:30;;;;;;;7.20;3.45;;;30.70;99.90;;;;;;4895933;29;20064;-93
2022/07/14 06:52:00;;;;;;;8.27;4.00;;;30.80;99.90;;;;;;4912272;29;20043;-95
2022/07/14 06:54:27;;;;;;;7.45;3.13;;;31.30;99.90;;;;;;4911684;29;20088;-94
2022/07/14 06:56:57;;;;;;;7.90;3.95;;;31.60;99.90;;;;;;4909492;29;20047;-94
2022/07/14 06:59:24;;;;;;;7.63;3.80;;;31.70;99.90;;;;;;4909356;29;20092;-94
2022/07/14 07:01:51;;;;;;;8.50;4.50;;;31.80;99.90;;;;;;4910058;29;20128;-94
2022/07/14 07:04:21;;;;;;;6.63;4.32;;;32.30;99.90;;;;;;4912029;29;20032;-93
2022/07/14 07:12:46;;;;;;;7.18;4.43;;;31.90;99.90;;;;;;5598803;23;20054;-96
2022/07/14 07:15:32;;;;;;;8.32;6.15;;;32.30;99.90;;;;;;4969993;28;20492;-93
2022/07/14 07:18:01;;;;;;;6.28;5.22;;;32.70;99.90;;;;;;4954660;28;20098;-92
2022/07/14 07:20:39;;;;;;;6.00;5.40;;;32.30;99.90;;;;;;4969376;28;20045;-92
2022/07/14 07:23:10;;;;;;;6.45;5.38;;;32.30;99.90;;;;;;4968899;28;20034;-92
2022/07/14 07:25:37;;;;;;;7.57;5.20;;;32.30;99.90;;;;;;4965293;28;20421;-94
2022/07/14 07:28:05;;;;;;;5.78;3.95;;;32.30;99.90;;;;;;4961228;28;20037;-93
2022/07/14 07:30:32;;;;;;;7.00;4.30;;;32.50;99.90;;;;;;4960697;28;20037;-92
2022/07/14 07:32:58;;;;;;;9.38;6.32;;;32.70;99.90;;;;;;4961291;28;20030;-92
2022/07/14 07:35:25;;;;;;;10.80;6.40;;;32.10;99.90;;;;;;4960260;28;20039;-93
2022/07/14 07:37:55;;;;;;;7.53;6.60;;;31.70;99.90;;;;;;4960134;28;20392;-95
2022/07/14 07:40:22;;;;;;;7.60;5.85;;;31.10;99.90;;;;;;4953392;29;20473;-91
2022/07/14 07:42:48;;;;;;;10.30;6.68;;;31.80;99.90;;;;;;4934995;28;20062;-87
2022/07/14 07:45:15;;;;;;;8.75;7.03;;;32.30;99.90;;;;;;4940596;29;20038;-88
2022/07/14 07:47:42;;;;;;;8.43;7.45;;;32.70;99.90;;;;;;4924972;29;20062;-88
2022/07/14 07:50:11;;;;;;;8.30;7.30;;;32.80;99.90;;;;;;4927275;28;20031;-87
2022/07/14 07:52:38;;;;;;;10.00;7.00;;;32.90;99.90;;;;;;4925342;29;20028;-87
2022/07/14 07:55:11;;;;;;;8.38;6.85;;;32.60;99.90;;;;;;4952800;28;20041;-88
2022/07/14 07:57:39;;;;;;;9.17;7.30;;;32.30;99.90;;;;;;4942148;28;20034;-87
2022/07/14 08:00:07;;;;;;;24.50;9.20;;;32.20;99.90;;;;;;4926945;29;20035;-87
2022/07/14 08:02:52;;;;;;;9.13;8.40;;;32.50;99.90;;;;;;4946364;29;20036;-87
2022/07/14 08:05:23;;;;;;;9.55;8.95;;;32.80;99.90;;;;;;4936398;29;20110;-87
2022/07/14 08:07:51;;;;;;;9.25;8.60;;;32.50;99.90;;;;;;4927029;28;20121;-88
2022/07/14 08:10:33;;;;;;;9.93;8.95;;;32.30;99.90;;;;;;4943771;28;20504;-95
2022/07/14 08:13:10;;;;;;;9.10;8.40;;;32.30;99.90;;;;;;4940045;29;20051;-93
2022/07/14 08:15:38;;;;;;;9.90;9.30;;;32.40;99.90;;;;;;4955479;29;20090;-94
2022/07/14 08:18:06;;;;;;;8.73;8.13;;;32.50;99.90;;;;;;4924461;29;20027;-93
2022/07/14 08:20:36;;;;;;;8.90;8.30;;;32.00;99.90;;;;;;4943436;28;20042;-93
2022/07/14 08:23:03;;;;;;;9.75;9.15;;;32.30;99.90;;;;;;4959506;28;20027;-94
2022/07/14 08:25:38;;;;;;;9.32;8.80;;;32.50;99.90;;;;;;4959259;28;20023;-93
2022/07/14 08:28:06;;;;;;;9.07;8.38;;;32.50;99.90;;;;;;4959920;28;20033;-92
2022/07/14 08:30:32;;;;;;;9.75;9.00;;;32.50;99.90;;;;;;4943763;28;20034;-92
2022/07/14 08:32:59;;;;;;;9.50;8.70;;;32.00;99.90;;;;;;4960170;28;20031;-93
2022/07/14 08:35:26;;;;;;;9.85;9.15;;;31.60;99.90;;;;;;4938486;28;20031;-91
2022/07/14 08:37:56;;;;;;;9.57;8.88;;;31.60;99.90;;;;;;4937416;28;20033;-93
2022/07/14 08:40:25;;;;;;;9.50;9.00;;;31.40;99.90;;;;;;4930796;28;20027;-93
2022/07/14 08:43:03;;;;;;;9.88;9.27;;;31.50;99.90;;;;;;4931266;28;20030;-91
2022/07/14 08:45:58;;;;;;;9.70;9.20;;;31.50;99.90;;;;;;4931704;28;20076;-94
2022/07/14 08:48:40;;;;;;;;;;;;;;;;;;;;;
2022/07/14 08:51:26;;;;;;;8.88;8.18;;;30.80;99.90;;;;;;4949772;28;20031;-93
2022/07/14 08:53:55;;;;;;;9.23;8.65;;;31.10;99.90;;;;;;4948040;28;20027;-92
2022/07/14 08:56:21;;;;;;;9.65;8.90;;;31.20;99.90;;;;;;4936556;28;20023;-93
2022/07/14 08:58:51;;;;;;;9.63;8.70;;;31.10;99.90;;;;;;4966757;23;20051;-93
2022/07/14 09:01:30;;;;;;;9.13;8.57;;;30.80;99.90;;;;;;4962744;28;20039;-92
2022/07/14 09:03:59;;;;;;;8.75;8.00;;;30.90;99.90;;;;;;4926531;29;20039;-92
2022/07/14 09:06:45;;;;;;;8.32;6.60;;;30.70;99.90;;;;;;4943820;29;20126;-92
2022/07/14 09:09:18;;;;;;;6.78;5.72;;;30.70;99.90;;;;;;4927930;29;20038;-91
2022/07/14 09:11:57;;;;;;;7.50;5.70;;;30.90;99.90;;;;;;4949744;28;20031;-92
2022/07/14 09:14:26;;;;;;;8.85;4.90;;;30.30;99.90;;;;;;4962399;28;20485;-92
2022/07/14 09:17:12;;;;;;;5.70;5.20;;;30.40;99.90;;;;;;4941010;29;20498;-92
2022/07/14 09:20:10;;;;;;;6.38;4.85;;;30.60;99.90;;;;;;4940883;29;20061;-93
2022/07/14 09:22:41;;;;;;;6.38;5.57;;;30.60;99.90;;;;;;4928112;29;20024;-92
2022/07/14 09:25:11;;;;;;;5.72;4.90;;;31.30;99.90;;;;;;4928000;29;20038;-94
2022/07/14 09:27:39;;;;;;;10.27;5.50;;;31.00;99.90;;;;;;4939323;29;20035;-93
2022/07/14 09:30:10;;;;;;;6.93;5.65;;;30.80;99.90;;;;;;4950664;28;20027;-93
2022/07/14 09:32:47;;;;;;;6.82;6.03;;;30.60;99.90;;;;;;4930741;29;20028;-92
2022/07/14 09:35:17;;;;;;;6.75;5.95;;;30.70;99.90;;;;;;4935589;29;20126;-91
2022/07/14 09:37:45;;;;;;;7.10;6.50;;;30.50;99.90;;;;;;4959209;28;20035;-91
2022/07/14 09:40:20;;;;;;;6.25;5.75;;;30.50;99.90;;;;;;4940420;29;20404;-92
2022/07/14 09:42:59;;;;;;;11.63;5.85;;;30.30;99.90;;;;;;4951579;29;20028;-92
2022/07/14 09:45:30;;;;;;;7.50;6.45;;;30.20;99.90;;;;;;4924062;29;20028;-92
2022/07/14 09:48:11;;;;;;;7.28;6.63;;;30.00;99.90;;;;;;4939799;29;20122;-93
2022/07/14 09:51:00;;;;;;;8.40;6.70;;;30.20;99.90;;;;;;4938367;29;20020;-92
2022/07/14 09:53:32;;;;;;;7.30;6.47;;;30.00;99.90;;;;;;4939834;29;20464;-92
2022/07/14 09:56:11;;;;;;;6.97;6.30;;;29.70;99.90;;;;;;4951183;28;20039;-94
2022/07/14 09:58:51;;;;;;;7.28;6.50;;;29.40;99.90;;;;;;4929523;29;20052;-92
2022/07/14 10:01:19;;;;;;;7.20;6.75;;;29.30;99.90;;;;;;4944262;29;20031;-92
2022/07/14 10:03:48;;;;;;;7.20;6.57;;;29.50;99.90;;;;;;4923557;29;20030;-91
2022/07/14 10:06:18;;;;;;;7.07;6.57;;;29.40;99.90;;;;;;4933061;29;20037;-91
2022/07/14 10:08:57;;;;;;;7.10;6.40;;;29.50;99.90;;;;;;4939682;29;20032;-92
2022/07/14 10:11:28;;;;;;;6.47;5.88;;;29.40;99.90;;;;;;4936671;29;20473;-93
2022/07/14 10:13:55;;;;;;;5.50;5.10;;;29.40;99.90;;;;;;4923586;29;20477;-93
2022/07/14 10:16:23;;;;;;;5.85;4.97;;;29.30;99.90;;;;;;4923616;29;20485;-93
2022/07/14 10:18:50;;;;;;;13.00;5.57;;;29.50;99.90;;;;;;4923404;29;20564;-93
2022/07/14 10:21:18;;;;;;;5.93;5.45;;;29.50;99.90;;;;;;4935498;29;20069;-93
2022/07/14 10:23:46;;;;;;;5.78;5.22;;;29.70;99.90;;;;;;4936944;29;20607;-93
2022/07/14 10:26:13;;;;;;;5.57;5.05;;;29.80;99.90;;;;;;4923666;29;20083;-93
2022/07/14 10:28:41;;;;;;;5.70;5.28;;;29.70;99.90;;;;;;4923713;29;20023;-92
2022/07/14 10:31:20;;;;;;;6.43;5.80;;;29.60;99.90;;;;;;4923734;29;20032;-93
2022/07/14 10:34:09;;;;;;;30.20;7.35;;;29.50;99.90;;;;;;4931053;29;20054;-93
2022/07/14 10:36:41;;;;;;;7.28;6.70;;;29.60;99.90;;;;;;4956586;28;20043;-92
2022/07/14 10:39:20;;;;;;;7.80;7.30;;;29.80;99.90;;;;;;4958560;29;20494;-94
2022/07/14 10:42:11;;;;;;;8.63;7.82;;;30.10;99.90;;;;;;4957117;28;20027;-95
2022/07/14 10:44:43;;;;;;;8.95;8.45;;;29.90;99.90;;;;;;4943265;29;20398;-93
2022/07/14 10:47:17;;;;;;;8.60;7.80;;;29.80;99.90;;;;;;4927330;29;20059;-93
2022/07/14 10:50:10;;;;;;;8.80;8.30;;;29.70;99.90;;;;;;4942433;29;20066;-92
2022/07/14 10:52:38;;;;;;;9.57;8.75;;;30.00;99.90;;;;;;4938727;29;20063;-91
2022/07/14 10:55:21;;;;;;;9.32;8.73;;;30.40;99.90;;;;;;4922539;29;20036;-91
2022/07/14 10:58:04;;;;;;;9.02;8.52;;;30.60;99.90;;;;;;4938248;29;20072;-91
2022/07/14 11:00:47;;;;;;;9.50;8.90;;;30.80;99.90;;;;;;4939098;29;20458;-93
2022/07/14 11:03:22;;;;;;;8.93;8.13;;;31.10;99.90;;;;;;4939174;29;20024;-95
2022/07/14 11:06:20;;;;;;;8.90;8.40;;;30.50;99.90;;;;;;4940391;29;20063;-94
2022/07/14 11:37:53;;;;;;;10.13;9.43;;;30.00;99.90;;;;;;5717511;23;20316;-94
2022/07/14 11:40:44;;;;;;;10.13;9.52;;;30.10;99.90;;;;;;4943066;29;20049;-93
2022/07/14 11:43:29;;;;;;;9.70;9.20;;;29.90;99.90;;;;;;4916821;29;20028;-92
2022/07/14 11:46:07;;;;;;;9.73;9.30;;;29.80;99.90;;;;;;4939345;29;20031;-93
2022/07/14 11:48:36;;;;;;;10.05;9.20;;;29.80;99.90;;;;;;4930810;29;20385;-93
2022/07/14 11:51:21;;;;;;;10.07;9.55;;;29.90;99.90;;;;;;4916414;29;20106;-91
2022/07/14 11:53:58;;;;;;;9.73;9.20;;;30.00;99.90;;;;;;4924683;29;20028;-92
2022/07/14 11:56:27;;;;;;;10.10;9.30;;;30.10;99.90;;;;;;4923604;29;20047;-93
2022/07/14 12:02:15;;;;;;;9.93;9.30;;;29.80;99.90;;;;;;4824450;29;20045;-93
2022/07/14 12:04:51;;;;;;;10.60;9.93;;;29.20;99.90;;;;;;4821576;29;20042;-93
2022/07/14 12:07:19;;;;;;;10.75;10.25;;;29.00;99.90;;;;;;4818778;29;20129;-93
2022/07/14 12:09:47;;;;;;;10.57;10.00;;;28.90;99.90;;;;;;4817574;29;20569;-94
2022/07/14 12:12:14;;;;;;;10.48;10.00;;;28.90;99.90;;;;;;4812969;29;20049;-95
2022/07/14 12:14:49;;;;;;;10.43;9.82;;;28.90;99.90;;;;;;4812376;29;20049;-94
2022/07/14 12:17:17;;;;;;;11.25;10.40;;;29.00;99.90;;;;;;4816561;29;20037;-94
2022/07/14 12:19:47;;;;;;;10.20;9.80;;;29.10;99.90;;;;;;4829697;29;20042;-93
2022/07/14 12:22:15;;;;;;;10.98;10.15;;;29.30;99.90;;;;;;4811068;29;20034;-94
2022/07/14 12:24:45;;;;;;;10.48;9.82;;;29.20;99.90;;;;;;4827821;29;20025;-93
2022/07/14 12:27:12;;;;;;;10.23;9.63;;;29.10;99.90;;;;;;4837575;29;20057;-92
2022/07/14 12:29:56;;;;;;;9.75;9.18;;;28.90;99.90;;;;;;4837985;29;20106;-94
2022/07/14 12:32:25;;;;;;;10.07;9.48;;;28.60;99.90;;;;;;4840414;29;20053;-93
2022/07/14 12:34:52;;;;;;;10.30;9.63;;;28.70;99.90;;;;;;4826027;29;20038;-93
2022/07/14 12:37:19;;;;;;;10.30;9.80;;;28.90;99.90;;;;;;4827655;29;20073;-93
2022/07/14 12:39:46;;;;;;;9.73;9.10;;;29.00;99.90;;;;;;4898625;29;20039;-93
2022/07/14 12:42:12;;;;;;;10.10;9.60;;;29.10;99.90;;;;;;4922991;29;20031;-92
2022/07/14 12:45:07;;;;;;;9.88;9.38;;;29.10;99.90;;;;;;4916601;29;20509;-93
2022/07/14 12:48:00;;;;;;;10.30;9.80;;;29.10;99.90;;;;;;4907410;29;20043;-94
2022/07/14 12:50:40;;;;;;;10.25;9.52;;;29.20;99.90;;;;;;4915435;29;20051;-94
2022/07/14 12:53:10;;;;;;;10.65;10.02;;;29.30;99.90;;;;;;4947916;29;20031;-92
2022/07/14 12:55:38;;;;;;;10.15;9.63;;;29.40;99.90;;;;;;4940233;29;20405;-94
2022/07/14 12:58:18;;;;;;;11.10;10.07;;;29.40;99.90;;;;;;4912826;29;20481;-93
2022/07/14 13:00:45;;;;;;;10.13;9.48;;;29.60;99.90;;;;;;4921561;29;20042;-93
2022/07/14 13:03:19;;;;;;;10.30;9.70;;;29.30;99.90;;;;;;4913169;29;20031;-93
2022/07/14 13:05:50;;;;;;;10.00;9.50;;;29.20;99.90;;;;;;4924550;29;20035;-93
2022/07/14 13:09:00;;;;;;;10.15;9.57;;;29.10;99.90;;;;;;4924985;29;20031;-93
2022/07/14 13:11:29;;;;;;;10.15;9.38;;;29.10;99.90;;;;;;4866268;29;20080;-93
2022/07/14 13:13:59;;;;;;;9.90;9.40;;;29.10;99.90;;;;;;4897707;29;20040;-93
2022/07/14 13:16:29;;;;;;;10.18;9.60;;;29.00;99.90;;;;;;4881354;29;20068;-92
2022/07/14 13:19:25;;;;;;;10.73;9.55;;;28.80;99.90;;;;;;4898411;29;20047;-93
2022/07/14 13:22:06;;;;;;;10.20;9.40;;;28.80;99.90;;;;;;4900067;29;20049;-94
2022/07/14 13:24:44;;;;;;;9.75;9.25;;;28.90;99.90;;;;;;4893171;29;20111;-93
2022/07/14 13:27:18;;;;;;;10.18;9.48;;;29.10;99.90;;;;;;4886255;29;20037;-92
2022/07/14 13:29:49;;;;;;;10.10;9.50;;;28.70;99.90;;;;;;4891190;29;20588;-93
2022/07/14 13:32:18;;;;;;;10.05;9.60;;;28.80;99.90;;;;;;4887357;29;20045;-93
2022/07/14 13:34:45;;;;;;;10.40;9.90;;;28.80;99.90;;;;;;4873617;29;20398;-94
2022/07/14 13:37:17;;;;;;;10.30;9.48;;;29.00;99.90;;;;;;4905336;29;20041;-93
2022/07/14 14:35:54;;;;;;;10.00;9.18;;;28.60;99.90;;;;;;1007244;23;20306;-92
2022/07/14 14:38:36;;;;;;;8.93;8.43;;;28.70;99.90;;;;;;4941676;29;20062;-93
2022/07/14 14:41:56;;;;;;;9.23;8.63;;;28.50;99.90;;;;;;4939855;29;20027;-92
2022/07/14 14:45:11;;;;;;;;;;;;;;;;;;;;;
2022/07/14 14:48:46;;;;;;;;;;;;;;;;;;;;;
2022/07/14 15:03:25;;;;;;;8.82;8.23;;;28.70;99.90;;;;;;5010850;23;20061;-91
2022/07/14 15:05:52;;;;;;;10.27;9.57;;;28.70;99.90;;;;;;4980646;28;20031;-93
2022/07/14 15:08:18;;;;;;;10.32;9.43;;;28.60;99.90;;;;;;4964581;28;20032;-93
2022/07/14 15:10:44;;;;;;;9.80;8.95;;;28.40;99.90;;;;;;4965289;28;20027;-92
2022/07/14 15:13:11;;;;;;;9.40;8.70;;;28.40;99.90;;;;;;4964296;28;20026;-92
2022/07/14 15:15:37;;;;;;;9.38;8.60;;;28.30;99.90;;;;;;4963550;28;20074;-93
2022/07/14 15:18:03;;;;;;;9.30;8.25;;;28.50;99.90;;;;;;4963787;28;20514;-93
2022/07/14 15:20:30;;;;;;;9.48;8.88;;;28.40;99.90;;;;;;4963766;28;20479;-92
2022/07/14 15:22:56;;;;;;;9.95;9.25;;;28.40;99.90;;;;;;4963750;28;20118;-91
2022/07/14 15:25:22;;;;;;;10.27;9.48;;;28.50;99.90;;;;;;4963850;28;20038;-93